Time;durP1;ratioP1;P1;durP2;ratioP2;P2;SDS_P1;SDS_P2;PMS_P1;PMS_P2;Temp;Humidity;BMP_temperature;BMP_pressure;BME280_temperature;BME280_humidity;BME280_pressure;Samples;Min_cycle;Max_cycle;Signal;HPM_P1;HPM_P2
2022/10/15 00:02:07;;;;;;;0.40;0.40;;;14.00;99.90;;;;;;5028713;28;20631;-82
2022/10/15 00:04:34;;;;;;;1.30;0.50;;;14.00;99.90;;;;;;5023386;28;20631;-82
2022/10/15 00:07:01;;;;;;;0.40;0.30;;;14.00;99.90;;;;;;5008903;28;20628;-82
2022/10/15 00:09:28;;;;;;;0.30;0.20;;;14.10;99.90;;;;;;5009486;28;20620;-84
2022/10/15 00:11:56;;;;;;;0.53;0.30;;;14.00;99.90;;;;;;5009146;28;20612;-83
2022/10/15 00:14:23;;;;;;;0.40;0.30;;;14.10;99.90;;;;;;5009095;28;21280;-83
2022/10/15 00:16:50;;;;;;;0.30;0.20;;;14.10;99.90;;;;;;5019910;28;21193;-83
2022/10/15 00:19:16;;;;;;;0.30;0.20;;;14.10;99.90;;;;;;5028368;28;21012;-83
2022/10/15 00:21:43;;;;;;;0.40;0.30;;;14.10;99.90;;;;;;5028837;28;20615;-83
2022/10/15 00:24:10;;;;;;;0.30;0.20;;;;;;;;;;5029072;28;21077;-83
2022/10/15 00:26:37;;;;;;;0.50;0.30;;;14.10;99.90;;;;;;5028377;28;21185;-83
2022/10/15 00:29:05;;;;;;;0.60;0.50;;;14.10;99.90;;;;;;5028596;28;20618;-83
2022/10/15 00:31:32;;;;;;;0.40;0.30;;;14.10;99.90;;;;;;5028419;28;20622;-83
2022/10/15 00:34:01;;;;;;;0.40;0.40;;;14.10;99.90;;;;;;5028720;28;21041;-84
2022/10/15 00:36:30;;;;;;;0.43;0.30;;;14.10;99.90;;;;;;5028671;28;21245;-83
2022/10/15 00:38:57;;;;;;;0.40;0.20;;;14.10;99.90;;;;;;5025107;28;20662;-83
2022/10/15 00:41:27;;;;;;;0.30;0.20;;;14.10;99.90;;;;;;5029046;28;20637;-83
2022/10/15 00:43:56;;;;;;;0.40;0.30;;;14.10;99.90;;;;;;5027965;28;20726;-84
2022/10/15 00:46:27;;;;;;;1.13;0.37;;;13.90;99.90;;;;;;5028627;28;21281;-83
2022/10/15 00:48:57;;;;;;;0.40;0.40;;;14.10;99.90;;;;;;5027940;28;20654;-83
2022/10/15 00:51:29;;;;;;;0.30;0.20;;;14.20;99.90;;;;;;5025323;28;20656;-83
2022/10/15 00:53:56;;;;;;;0.30;0.20;;;14.20;99.90;;;;;;5008959;28;20974;-83
2022/10/15 00:56:25;;;;;;;3.67;0.40;;;14.30;99.90;;;;;;5016773;28;20964;-83
2022/10/15 00:58:53;;;;;;;0.30;0.20;;;14.20;99.90;;;;;;5019609;28;20750;-83
2022/10/15 01:01:21;;;;;;;0.40;0.30;;;14.20;99.90;;;;;;5008992;28;21094;-83
2022/10/15 01:03:49;;;;;;;0.30;0.30;;;14.20;99.90;;;;;;5007210;28;20626;-83
2022/10/15 01:06:16;;;;;;;0.30;0.30;;;14.20;99.90;;;;;;5026016;28;20724;-83
2022/10/15 01:08:43;;;;;;;0.50;0.30;;;14.20;99.90;;;;;;5027647;28;21220;-83
2022/10/15 01:11:30;;;;;;;0.40;0.40;;;14.20;99.90;;;;;;5028870;28;21046;-83
2022/10/15 01:14:06;;;;;;;0.50;0.50;;;14.20;99.90;;;;;;5028152;28;20607;-83
2022/10/15 01:16:42;;;;;;;0.50;0.30;;;14.10;99.90;;;;;;5028110;28;21240;-83
2022/10/15 01:19:25;;;;;;;0.30;0.20;;;14.20;99.90;;;;;;5027913;28;20737;-82
2022/10/15 01:21:59;;;;;;;1.90;0.30;;;14.20;99.90;;;;;;5028065;28;21248;-83
2022/10/15 01:25:03;;;;;;;0.30;0.30;;;14.20;99.90;;;;;;5028376;28;21177;-83
2022/10/15 01:27:38;;;;;;;0.40;0.23;;;14.20;99.90;;;;;;5026965;28;21228;-83
2022/10/15 01:30:25;;;;;;;0.30;0.20;;;14.20;99.90;;;;;;5027097;28;20611;-82
2022/10/15 01:33:19;;;;;;;0.40;0.40;;;14.20;99.90;;;;;;5028000;28;20619;-83
2022/10/15 01:35:51;;;;;;;0.30;0.30;;;14.30;99.90;;;;;;5017929;28;20709;-83
2022/10/15 01:38:30;;;;;;;0.30;0.20;;;14.30;99.90;;;;;;5020205;28;20635;-83
2022/10/15 01:41:02;;;;;;;0.40;0.30;;;14.30;99.90;;;;;;5011687;28;20630;-83
2022/10/15 01:43:33;;;;;;;0.30;0.20;;;14.30;99.90;;;;;;5017873;28;21197;-83
2022/10/15 01:46:06;;;;;;;1.07;0.20;;;14.30;99.90;;;;;;5027607;28;21193;-83
2022/10/15 01:48:36;;;;;;;0.30;0.20;;;14.30;99.90;;;;;;5027513;28;20599;-83
2022/10/15 01:51:06;;;;;;;0.30;0.20;;;14.30;99.90;;;;;;5018598;28;20619;-82
2022/10/15 01:53:34;;;;;;;0.30;0.20;;;14.20;99.90;;;;;;5027871;28;20614;-82
2022/10/15 01:56:06;;;;;;;0.30;0.20;;;14.30;99.90;;;;;;5027153;28;20615;-82
2022/10/15 01:58:35;;;;;;;0.30;0.20;;;14.30;99.90;;;;;;5025639;28;21184;-82
2022/10/15 02:01:04;;;;;;;0.30;0.20;;;14.30;99.90;;;;;;5007621;28;21166;-82
2022/10/15 02:03:31;;;;;;;0.50;0.50;;;14.30;99.90;;;;;;5007298;28;21071;-82
2022/10/15 02:06:03;;;;;;;0.30;0.20;;;14.30;99.90;;;;;;5023915;28;20669;-82
2022/10/15 02:08:38;;;;;;;0.40;0.37;;;14.30;99.90;;;;;;5013765;28;20623;-82
2022/10/15 02:11:12;;;;;;;0.30;0.20;;;14.30;99.90;;;;;;5008351;28;20635;-82
2022/10/15 02:13:50;;;;;;;0.30;0.20;;;14.30;99.90;;;;;;5008081;28;20620;-83
2022/10/15 02:16:23;;;;;;;0.30;0.20;;;14.30;99.90;;;;;;5020718;28;20949;-83
2022/10/15 02:18:54;;;;;;;0.50;0.30;;;14.30;99.90;;;;;;5026741;28;20619;-82
2022/10/15 02:21:26;;;;;;;0.50;0.30;;;14.40;99.90;;;;;;5012722;28;20652;-82
2022/10/15 02:23:58;;;;;;;0.60;0.40;;;14.40;99.90;;;;;;5014664;28;20723;-83
2022/10/15 02:26:27;;;;;;;7.30;0.40;;;14.30;99.90;;;;;;5014621;28;20615;-82
2022/10/15 02:28:57;;;;;;;0.30;0.30;;;14.30;99.90;;;;;;5009888;28;20619;-83
2022/10/15 02:31:28;;;;;;;0.50;0.40;;;14.40;99.90;;;;;;5027154;28;21165;-82
2022/10/15 02:33:59;;;;;;;0.30;0.20;;;14.40;99.90;;;;;;5027488;28;21168;-83
2022/10/15 02:36:26;;;;;;;1.00;0.30;;;;;;;;;;5008422;28;21216;-83
2022/10/15 02:38:57;;;;;;;0.30;0.20;;;14.40;99.90;;;;;;5025375;28;20631;-83
2022/10/15 02:41:24;;;;;;;0.30;0.20;;;14.40;99.90;;;;;;5028869;28;21192;-83
2022/10/15 02:43:52;;;;;;;0.30;0.20;;;14.30;99.90;;;;;;5031499;28;20619;-83
2022/10/15 02:46:20;;;;;;;0.30;0.13;;;14.40;99.90;;;;;;5030835;28;20684;-83
2022/10/15 02:48:49;;;;;;;0.30;0.10;;;14.40;99.90;;;;;;5030104;28;21085;-84
2022/10/15 02:51:16;;;;;;;0.30;0.20;;;14.40;99.90;;;;;;5030999;28;20711;-83
2022/10/15 02:53:43;;;;;;;0.30;0.20;;;14.40;99.90;;;;;;5030837;28;21266;-83
2022/10/15 02:56:10;;;;;;;0.40;0.20;;;14.40;99.90;;;;;;5030730;28;21188;-84
2022/10/15 02:58:37;;;;;;;0.73;0.30;;;14.50;99.90;;;;;;5029797;28;20634;-83
2022/10/15 03:01:04;;;;;;;0.30;0.20;;;14.50;99.90;;;;;;5030342;28;20639;-84
2022/10/15 03:03:31;;;;;;;0.53;0.30;;;14.90;99.90;;;;;;5028880;28;20626;-83
2022/10/15 03:05:59;;;;;;;0.30;0.20;;;14.50;99.90;;;;;;5014406;28;20635;-83
2022/10/15 03:08:26;;;;;;;0.50;0.27;;;14.50;99.90;;;;;;5010189;28;20638;-81
2022/10/15 03:10:53;;;;;;;0.30;0.20;;;14.50;99.90;;;;;;5010534;28;21200;-83
2022/10/15 03:13:19;;;;;;;0.40;0.33;;;14.50;99.90;;;;;;5010757;28;20616;-82
2022/10/15 03:15:46;;;;;;;0.30;0.20;;;14.50;99.90;;;;;;5013136;28;20631;-83
2022/10/15 03:18:13;;;;;;;0.30;0.20;;;14.50;99.90;;;;;;5029722;28;20629;-83
2022/10/15 03:20:40;;;;;;;0.30;0.20;;;14.60;99.90;;;;;;5030345;28;20749;-82
2022/10/15 03:23:08;;;;;;;0.30;0.20;;;14.50;99.90;;;;;;5030391;28;20629;-83
2022/10/15 03:25:35;;;;;;;0.37;0.37;;;14.60;99.90;;;;;;5030081;28;20629;-83
2022/10/15 03:28:01;;;;;;;0.30;0.20;;;14.60;99.90;;;;;;5029346;28;20623;-83
2022/10/15 03:30:28;;;;;;;0.30;0.20;;;14.60;99.90;;;;;;5029791;28;20623;-84
2022/10/15 03:32:55;;;;;;;0.50;0.20;;;14.60;99.90;;;;;;5029977;28;20621;-83
2022/10/15 03:35:22;;;;;;;0.30;0.10;;;14.60;99.90;;;;;;5029932;28;21275;-83
2022/10/15 03:37:49;;;;;;;0.30;0.10;;;14.60;99.90;;;;;;5025939;28;20816;-83
2022/10/15 03:40:17;;;;;;;0.30;0.20;;;14.60;99.90;;;;;;5029127;28;21274;-83
2022/10/15 03:42:44;;;;;;;0.30;0.10;;;14.60;99.90;;;;;;5029736;28;20625;-82
2022/10/15 03:45:11;;;;;;;1.53;0.20;;;14.70;99.90;;;;;;5029594;28;20673;-83
2022/10/15 03:47:38;;;;;;;0.53;0.37;;;14.70;99.90;;;;;;5029215;28;20630;-84
2022/10/15 03:50:05;;;;;;;0.30;0.20;;;14.70;99.90;;;;;;5030035;28;20621;-84
2022/10/15 03:52:32;;;;;;;0.60;0.53;;;14.70;99.90;;;;;;5028702;28;21183;-83
2022/10/15 03:54:59;;;;;;;0.30;0.27;;;14.60;99.90;;;;;;5029196;28;20635;-83
2022/10/15 03:57:27;;;;;;;0.70;0.20;;;14.70;99.90;;;;;;5029004;28;20997;-84
2022/10/15 03:59:54;;;;;;;0.30;0.20;;;14.60;99.90;;;;;;5029045;28;21020;-84
2022/10/15 04:02:20;;;;;;;0.30;0.20;;;14.70;99.90;;;;;;5029800;28;20629;-84
2022/10/15 04:04:47;;;;;;;0.30;0.20;;;14.70;99.90;;;;;;5021311;28;20686;-84
2022/10/15 04:07:14;;;;;;;0.30;0.20;;;14.70;99.90;;;;;;5009791;28;20635;-83
2022/10/15 04:09:41;;;;;;;0.30;0.20;;;14.70;99.90;;;;;;5009439;28;20927;-84
2022/10/15 04:12:08;;;;;;;0.30;0.20;;;14.70;99.90;;;;;;5009149;28;21273;-83
2022/10/15 04:14:36;;;;;;;0.40;0.30;;;14.70;99.90;;;;;;5009310;28;20692;-84
2022/10/15 04:17:03;;;;;;;0.30;0.27;;;14.70;99.90;;;;;;5022308;28;20631;-84
2022/10/15 04:19:30;;;;;;;0.60;0.40;;;14.70;99.90;;;;;;5028906;28;20629;-84
2022/10/15 04:21:57;;;;;;;0.30;0.20;;;14.50;99.90;;;;;;5029270;28;21212;-83
2022/10/15 04:24:25;;;;;;;0.30;0.17;;;14.70;99.90;;;;;;5029082;28;20724;-83
2022/10/15 04:26:52;;;;;;;0.30;0.20;;;14.70;99.90;;;;;;5028421;28;20625;-84
2022/10/15 04:29:19;;;;;;;0.30;0.20;;;14.70;99.90;;;;;;5029170;28;20730;-81
2022/10/15 04:31:47;;;;;;;0.30;0.10;;;14.70;99.90;;;;;;5028801;28;20623;-84
2022/10/15 04:34:14;;;;;;;1.27;0.60;;;14.70;99.90;;;;;;5029079;28;20709;-84
2022/10/15 04:36:40;;;;;;;0.40;0.40;;;14.70;99.90;;;;;;5028255;28;20714;-83
2022/10/15 04:39:07;;;;;;;0.57;0.30;;;14.70;99.90;;;;;;5028229;28;20632;-84
2022/10/15 04:41:34;;;;;;;0.30;0.20;;;14.70;99.90;;;;;;5028291;28;21059;-84
2022/10/15 04:44:01;;;;;;;0.30;0.20;;;14.70;99.90;;;;;;5029027;28;20614;-83
2022/10/15 04:46:28;;;;;;;0.40;0.30;;;14.60;99.90;;;;;;5028741;28;20637;-83
2022/10/15 04:48:57;;;;;;;0.40;0.40;;;14.70;99.90;;;;;;5028173;28;20627;-82
2022/10/15 04:51:26;;;;;;;0.30;0.20;;;14.70;99.90;;;;;;5028500;28;20634;-83
2022/10/15 04:53:53;;;;;;;0.30;0.23;;;14.70;99.90;;;;;;5028183;28;20642;-83
2022/10/15 04:56:21;;;;;;;0.30;0.20;;;14.70;99.90;;;;;;5028453;28;20631;-84
2022/10/15 04:58:49;;;;;;;0.30;0.20;;;14.70;99.90;;;;;;5027888;28;20832;-82
2022/10/15 05:01:17;;;;;;;0.53;0.27;;;14.70;99.90;;;;;;5028398;28;20650;-82
2022/10/15 05:03:46;;;;;;;0.30;0.20;;;14.70;99.90;;;;;;5026877;28;20613;-82
2022/10/15 05:06:17;;;;;;;0.30;0.10;;;14.70;99.90;;;;;;5009888;28;20620;-83
2022/10/15 05:08:44;;;;;;;0.40;0.33;;;14.70;99.90;;;;;;5007948;28;20620;-82
2022/10/15 05:11:14;;;;;;;0.73;0.40;;;14.60;99.90;;;;;;5008625;28;20624;-83
2022/10/15 05:13:40;;;;;;;0.70;0.30;;;14.80;99.90;;;;;;5008554;28;20655;-83
2022/10/15 05:16:15;;;;;;;0.30;0.20;;;14.70;99.90;;;;;;5014279;28;21294;-83
2022/10/15 05:18:43;;;;;;;0.30;0.20;;;14.70;99.90;;;;;;5026934;28;21180;-84
2022/10/15 05:21:11;;;;;;;0.30;0.27;;;14.70;99.90;;;;;;5028325;28;20659;-82
2022/10/15 05:23:39;;;;;;;0.93;0.57;;;14.60;99.90;;;;;;5027999;28;21199;-83
2022/10/15 05:26:08;;;;;;;0.30;0.20;;;14.70;99.90;;;;;;5028238;28;21169;-83
2022/10/15 05:28:35;;;;;;;3.80;0.97;;;14.70;99.90;;;;;;5027443;28;21280;-82
2022/10/15 05:31:06;;;;;;;0.30;0.30;;;14.70;99.90;;;;;;5028072;28;20607;-81
2022/10/15 05:33:34;;;;;;;0.40;0.27;;;14.70;99.90;;;;;;5027830;28;20603;-81
2022/10/15 05:36:08;;;;;;;0.77;0.30;;;14.70;99.90;;;;;;5028343;28;20633;-82
2022/10/15 05:38:35;;;;;;;0.30;0.23;;;14.70;99.90;;;;;;5027519;28;21179;-82
2022/10/15 05:41:03;;;;;;;0.40;0.30;;;14.70;99.90;;;;;;5027716;28;20999;-82
2022/10/15 05:43:30;;;;;;;0.50;0.30;;;14.60;99.90;;;;;;5027873;28;21211;-82
2022/10/15 05:45:57;;;;;;;0.50;0.40;;;14.70;99.90;;;;;;5027532;28;20754;-82
2022/10/15 05:48:24;;;;;;;0.57;0.37;;;14.70;99.90;;;;;;5025074;28;20769;-82
2022/10/15 05:50:51;;;;;;;0.40;0.40;;;14.60;99.90;;;;;;5007305;28;20718;-81
2022/10/15 05:53:18;;;;;;;0.40;0.30;;;14.60;99.90;;;;;;5008158;28;20622;-82
2022/10/15 05:55:45;;;;;;;0.30;0.30;;;14.60;99.90;;;;;;5008032;28;20623;-82
2022/10/15 05:58:13;;;;;;;0.30;0.20;;;14.60;99.90;;;;;;5010893;28;21282;-82
2022/10/15 06:00:40;;;;;;;1.17;1.07;;;14.90;99.90;;;;;;5026261;28;20639;-82
2022/10/15 06:03:06;;;;;;;0.40;0.30;;;14.40;99.90;;;;;;5026302;28;20722;-80
2022/10/15 06:05:33;;;;;;;0.90;0.60;;;14.60;99.90;;;;;;5025928;28;20639;-82
2022/10/15 06:08:00;;;;;;;0.50;0.30;;;14.60;99.90;;;;;;5027195;28;20670;-82
2022/10/15 06:10:28;;;;;;;0.30;0.20;;;14.60;99.90;;;;;;5027495;28;20630;-82
2022/10/15 06:12:54;;;;;;;0.43;0.43;;;14.70;99.90;;;;;;5026724;28;20619;-82
2022/10/15 06:15:23;;;;;;;0.30;0.30;;;14.60;99.90;;;;;;5027153;28;20637;-83
2022/10/15 06:17:52;;;;;;;0.40;0.40;;;14.70;99.90;;;;;;5010444;28;20622;-82
2022/10/15 06:20:19;;;;;;;0.40;0.23;;;14.60;99.90;;;;;;5011571;28;20670;-82
2022/10/15 06:22:46;;;;;;;0.50;0.30;;;14.70;99.90;;;;;;5011895;28;20631;-82
2022/10/15 06:25:13;;;;;;;1.23;0.30;;;14.70;99.90;;;;;;5011484;28;21261;-82
2022/10/15 06:27:40;;;;;;;0.43;0.37;;;14.60;99.90;;;;;;5010569;28;20623;-82
2022/10/15 06:30:09;;;;;;;0.40;0.30;;;14.60;99.90;;;;;;5011582;28;21203;-82
2022/10/15 06:32:37;;;;;;;0.50;0.43;;;14.60;99.90;;;;;;5011474;28;20626;-82
2022/10/15 06:35:04;;;;;;;0.70;0.60;;;14.70;99.90;;;;;;5011304;28;21018;-80
2022/10/15 06:37:31;;;;;;;0.50;0.30;;;14.60;99.90;;;;;;5017842;28;21195;-82
2022/10/15 06:39:58;;;;;;;0.37;0.37;;;14.60;99.90;;;;;;5030367;28;20647;-82
2022/10/15 06:42:24;;;;;;;1.13;0.30;;;14.70;99.90;;;;;;5031143;28;20721;-81
2022/10/15 06:44:52;;;;;;;0.40;0.40;;;;;;;;;;5030492;28;20637;-81
2022/10/15 06:47:18;;;;;;;0.67;0.67;;;14.60;99.90;;;;;;5030263;28;21164;-82
2022/10/15 06:49:47;;;;;;;0.40;0.30;;;14.60;99.90;;;;;;5030430;28;20738;-82
2022/10/15 06:52:14;;;;;;;0.77;0.77;;;14.70;99.90;;;;;;5030704;28;20599;-82
2022/10/15 06:54:43;;;;;;;0.30;0.30;;;14.60;99.90;;;;;;5030168;28;20649;-82
2022/10/15 06:57:10;;;;;;;0.40;0.33;;;14.60;99.90;;;;;;5030224;28;20626;-82
2022/10/15 06:59:37;;;;;;;0.70;0.40;;;14.60;99.90;;;;;;5016047;28;20635;-82
2022/10/15 07:02:04;;;;;;;0.50;0.50;;;14.60;99.90;;;;;;5010701;28;20991;-82
2022/10/15 07:04:31;;;;;;;0.60;0.60;;;14.60;99.90;;;;;;5015051;28;20627;-81
2022/10/15 07:06:59;;;;;;;0.87;0.60;;;14.60;99.90;;;;;;5030385;28;20721;-81
2022/10/15 07:09:26;;;;;;;2.60;0.60;;;14.70;99.90;;;;;;5030210;28;20647;-82
2022/10/15 07:11:53;;;;;;;0.30;0.30;;;14.60;99.90;;;;;;5030286;28;20629;-80
2022/10/15 07:14:20;;;;;;;0.30;0.20;;;14.60;99.90;;;;;;5028829;28;20630;-82
2022/10/15 07:16:47;;;;;;;0.50;0.50;;;14.60;99.90;;;;;;5017430;28;20627;-82
2022/10/15 07:19:14;;;;;;;0.53;0.30;;;14.60;99.90;;;;;;5008841;28;21260;-82
2022/10/15 07:21:40;;;;;;;0.57;0.57;;;14.60;99.90;;;;;;5009318;28;20652;-82
2022/10/15 07:24:09;;;;;;;0.80;0.80;;;14.70;99.90;;;;;;5009931;28;20731;-84
2022/10/15 07:26:36;;;;;;;0.63;0.63;;;14.70;99.90;;;;;;5009416;28;21055;-82
2022/10/15 07:29:03;;;;;;;0.43;0.30;;;14.70;99.90;;;;;;5009910;28;20650;-81
2022/10/15 07:31:30;;;;;;;0.70;0.70;;;14.70;99.90;;;;;;5010133;28;20646;-82
2022/10/15 07:33:57;;;;;;;0.50;0.43;;;14.70;99.90;;;;;;5010245;28;20622;-81
2022/10/15 07:36:26;;;;;;;6.60;0.73;;;14.70;99.90;;;;;;5009616;28;20631;-81
2022/10/15 07:38:53;;;;;;;0.40;0.40;;;14.70;99.90;;;;;;5027811;28;21064;-81
2022/10/15 07:41:21;;;;;;;0.60;0.60;;;14.70;99.90;;;;;;5029887;28;20663;-82
2022/10/15 07:43:48;;;;;;;1.13;0.60;;;14.70;99.90;;;;;;5029899;28;21025;-82
2022/10/15 07:46:15;;;;;;;0.60;0.40;;;14.80;99.90;;;;;;5029699;28;20698;-82
2022/10/15 07:48:42;;;;;;;0.40;0.40;;;14.80;99.90;;;;;;5028286;28;21451;-82
2022/10/15 07:51:11;;;;;;;0.93;0.60;;;14.80;99.90;;;;;;5028364;28;20642;-82
2022/10/15 07:53:38;;;;;;;0.90;0.60;;;14.80;99.90;;;;;;5029576;28;20623;-82
2022/10/15 07:56:07;;;;;;;0.40;0.40;;;14.80;99.90;;;;;;5029857;28;20633;-82
2022/10/15 07:58:37;;;;;;;0.70;0.40;;;14.80;99.90;;;;;;5022951;28;20642;-82
2022/10/15 08:01:04;;;;;;;0.57;0.57;;;14.90;99.90;;;;;;5009689;28;20644;-82
2022/10/15 08:03:31;;;;;;;0.40;0.33;;;14.90;99.90;;;;;;5009152;28;20747;-82
2022/10/15 08:06:00;;;;;;;0.60;0.60;;;14.90;99.90;;;;;;5025593;28;20659;-82
2022/10/15 08:08:27;;;;;;;0.87;0.50;;;14.90;99.90;;;;;;5028479;28;20640;-82
2022/10/15 08:10:54;;;;;;;0.90;0.67;;;14.90;99.90;;;;;;5029317;28;20629;-82
2022/10/15 08:13:21;;;;;;;0.40;0.33;;;14.90;99.90;;;;;;5029207;28;20631;-82
2022/10/15 08:15:50;;;;;;;0.70;0.70;;;15.00;99.90;;;;;;5025575;28;20685;-82
2022/10/15 08:18:16;;;;;;;0.40;0.33;;;15.00;99.90;;;;;;5008674;28;20630;-80
2022/10/15 08:20:43;;;;;;;0.90;0.50;;;15.10;99.90;;;;;;5008183;28;20620;-82
2022/10/15 08:23:15;;;;;;;0.40;0.40;;;15.10;99.90;;;;;;5009066;28;21186;-82
2022/10/15 08:25:43;;;;;;;0.60;0.37;;;15.10;99.90;;;;;;5009411;28;20723;-82
2022/10/15 08:28:10;;;;;;;0.50;0.30;;;15.20;99.90;;;;;;5008901;28;20628;-82
2022/10/15 08:30:37;;;;;;;0.30;0.27;;;15.10;99.90;;;;;;5008889;28;20658;-82
2022/10/15 08:33:05;;;;;;;0.50;0.40;;;15.40;99.90;;;;;;5009098;28;20655;-82
2022/10/15 08:35:35;;;;;;;0.40;0.30;;;15.20;99.90;;;;;;5009177;28;20711;-82
2022/10/15 08:38:02;;;;;;;0.50;0.50;;;15.30;99.90;;;;;;5016352;28;20638;-82
2022/10/15 08:40:29;;;;;;;0.30;0.30;;;15.30;99.90;;;;;;5027669;28;20639;-83
2022/10/15 08:42:59;;;;;;;0.70;0.70;;;15.30;99.90;;;;;;5028261;28;20677;-82
2022/10/15 08:45:30;;;;;;;0.47;0.47;;;15.40;99.90;;;;;;5028634;28;20619;-82
2022/10/15 08:48:00;;;;;;;1.00;0.60;;;15.50;99.90;;;;;;5027678;28;21186;-82
2022/10/15 08:50:36;;;;;;;0.40;0.30;;;15.50;99.90;;;;;;5028457;28;20630;-80
2022/10/15 08:53:03;;;;;;;1.60;1.30;;;15.50;99.90;;;;;;5028487;28;20619;-82
2022/10/15 08:55:35;;;;;;;0.40;0.20;;;15.50;99.90;;;;;;5028584;28;20623;-83
2022/10/15 08:58:12;;;;;;;0.47;0.47;;;15.50;99.90;;;;;;5026650;28;20627;-82
2022/10/15 09:00:44;;;;;;;0.30;0.30;;;15.50;99.90;;;;;;5008627;28;20620;-82
2022/10/15 09:03:28;;;;;;;1.07;0.50;;;15.50;99.90;;;;;;5008502;28;20614;-82
2022/10/15 09:06:04;;;;;;;0.90;0.43;;;15.50;99.90;;;;;;5023926;28;20625;-81
2022/10/15 09:08:35;;;;;;;0.40;0.40;;;15.60;99.90;;;;;;5027582;28;20626;-83
2022/10/15 09:11:12;;;;;;;0.40;0.40;;;15.50;99.90;;;;;;5028220;28;20627;-82
2022/10/15 09:13:42;;;;;;;0.50;0.50;;;15.60;99.90;;;;;;5028448;28;20644;-80
2022/10/15 09:16:15;;;;;;;0.40;0.40;;;15.60;99.90;;;;;;5029164;28;20634;-82
2022/10/15 09:18:45;;;;;;;0.50;0.37;;;15.60;99.90;;;;;;5026330;28;20627;-82
2022/10/15 09:21:14;;;;;;;0.53;0.53;;;15.70;99.90;;;;;;5027968;28;20635;-82
2022/10/15 09:23:42;;;;;;;0.50;0.50;;;15.70;99.90;;;;;;5028244;28;20664;-82
2022/10/15 09:26:22;;;;;;;0.60;0.27;;;15.70;99.90;;;;;;5028180;28;20706;-81
2022/10/15 09:28:56;;;;;;;0.30;0.30;;;15.70;99.90;;;;;;5027328;28;20615;-82
2022/10/15 09:31:27;;;;;;;0.30;0.30;;;15.80;99.90;;;;;;5028169;28;20621;-80
2022/10/15 09:34:01;;;;;;;0.43;0.40;;;15.80;99.90;;;;;;5028290;28;20615;-82
2022/10/15 09:36:38;;;;;;;0.40;0.33;;;15.80;99.90;;;;;;5027882;28;20725;-81
2022/10/15 09:39:24;;;;;;;0.30;0.20;;;16.00;99.90;;;;;;5024722;28;20982;-80
2022/10/15 09:42:01;;;;;;;0.30;0.20;;;15.90;99.90;;;;;;5028058;28;20661;-81
2022/10/15 09:44:37;;;;;;;0.30;0.30;;;15.80;99.90;;;;;;5027945;28;20629;-82
2022/10/15 09:47:16;;;;;;;0.30;0.20;;;15.90;99.90;;;;;;5027293;28;20611;-82
2022/10/15 09:49:43;;;;;;;0.40;0.30;;;16.00;99.90;;;;;;5027100;28;20629;-82
2022/10/15 09:52:20;;;;;;;0.40;0.33;;;16.00;99.90;;;;;;5031749;28;21196;-82
2022/10/15 09:54:59;;;;;;;0.30;0.20;;;16.20;99.90;;;;;;5032227;28;20621;-82
2022/10/15 09:57:27;;;;;;;0.40;0.30;;;16.20;99.90;;;;;;5031324;28;20627;-83
2022/10/15 09:59:55;;;;;;;0.40;0.30;;;16.30;99.90;;;;;;5015069;28;20715;-82
2022/10/15 10:02:23;;;;;;;0.37;0.37;;;16.30;99.90;;;;;;5011798;28;20666;-80
2022/10/15 10:04:50;;;;;;;0.40;0.40;;;16.30;99.90;;;;;;5018626;28;20633;-82
2022/10/15 10:07:31;;;;;;;0.70;0.33;;;16.50;99.90;;;;;;5031008;28;21184;-85
2022/10/15 10:10:00;;;;;;;0.50;0.50;;;16.50;99.90;;;;;;5031664;28;20626;-81
2022/10/15 10:12:29;;;;;;;0.80;0.30;;;16.60;99.90;;;;;;5031282;28;20623;-83
2022/10/15 10:14:59;;;;;;;0.40;0.30;;;16.60;99.90;;;;;;5031683;28;20651;-82
2022/10/15 10:17:27;;;;;;;0.40;0.30;;;16.60;99.90;;;;;;5014164;28;20638;-83
2022/10/15 10:20:19;;;;;;;1.40;0.60;;;16.50;99.90;;;;;;5010518;28;20624;-82
2022/10/15 10:22:51;;;;;;;0.43;0.40;;;16.60;99.90;;;;;;5001195;28;20704;-82
2022/10/15 10:25:30;;;;;;;0.60;0.50;;;16.60;99.90;;;;;;5011717;28;20663;-82
2022/10/15 10:27:59;;;;;;;1.83;0.90;;;16.70;99.90;;;;;;5010892;28;20644;-82
2022/10/15 10:30:26;;;;;;;0.60;0.47;;;16.60;99.90;;;;;;5011618;28;20627;-82
2022/10/15 10:32:56;;;;;;;0.83;0.40;;;16.60;99.90;;;;;;5011212;28;20992;-83
2022/10/15 10:35:25;;;;;;;0.50;0.50;;;16.80;99.90;;;;;;5010960;28;20706;-82
2022/10/15 10:37:54;;;;;;;1.43;0.50;;;16.80;99.90;;;;;;5017395;28;20627;-81
2022/10/15 10:40:27;;;;;;;1.17;0.47;;;16.80;99.90;;;;;;5031030;28;20637;-82
2022/10/15 10:43:11;;;;;;;0.60;0.47;;;16.80;99.90;;;;;;5030861;28;20661;-82
2022/10/15 10:45:38;;;;;;;0.73;0.63;;;16.80;99.90;;;;;;5030744;28;20630;-82
2022/10/15 10:48:22;;;;;;;0.43;0.43;;;16.80;99.90;;;;;;5029791;28;20730;-83
2022/10/15 10:51:01;;;;;;;1.13;0.67;;;16.90;99.90;;;;;;5030982;28;21032;-82
2022/10/15 10:53:29;;;;;;;0.53;0.50;;;16.90;99.90;;;;;;5019550;28;20639;-83
2022/10/15 10:55:58;;;;;;;0.50;0.40;;;17.00;99.90;;;;;;5011097;28;20620;-82
2022/10/15 10:58:33;;;;;;;0.40;0.37;;;17.10;99.90;;;;;;5014310;28;20627;-82
2022/10/15 11:01:00;;;;;;;0.77;0.70;;;17.10;99.90;;;;;;5030871;28;20615;-82
2022/10/15 11:03:33;;;;;;;0.50;0.50;;;17.20;99.90;;;;;;5029820;28;20651;-82
2022/10/15 11:06:22;;;;;;;1.13;1.03;;;17.20;99.90;;;;;;5030432;28;20661;-81
2022/10/15 11:09:01;;;;;;;2.10;0.70;;;17.10;99.90;;;;;;5020229;28;20635;-81
2022/10/15 11:11:35;;;;;;;0.40;0.33;;;17.20;99.90;;;;;;5030684;28;20976;-82
2022/10/15 11:14:16;;;;;;;1.63;0.70;;;17.20;99.90;;;;;;5030356;28;20623;-81
2022/10/15 11:16:53;;;;;;;0.60;0.60;;;17.20;99.90;;;;;;5019023;28;20695;-82
2022/10/15 11:19:29;;;;;;;0.50;0.40;;;17.10;99.90;;;;;;5009228;28;20630;-82
2022/10/15 11:22:15;;;;;;;1.67;0.53;;;17.10;99.90;;;;;;5010369;28;21197;-80
2022/10/15 11:24:49;;;;;;;1.10;0.70;;;17.20;99.90;;;;;;5010834;28;20619;-82
2022/10/15 11:27:32;;;;;;;0.90;0.73;;;17.30;99.90;;;;;;5009833;28;20618;-82
2022/10/15 11:30:05;;;;;;;1.97;0.70;;;17.30;99.90;;;;;;5010325;28;21190;-81
2022/10/15 11:32:46;;;;;;;0.50;0.50;;;17.30;99.90;;;;;;5010565;28;20627;-82
2022/10/15 11:35:28;;;;;;;0.47;0.43;;;17.30;99.90;;;;;;5010187;28;20620;-82
2022/10/15 11:38:09;;;;;;;0.40;0.40;;;17.30;99.90;;;;;;5020504;28;20623;-81
2022/10/15 11:40:46;;;;;;;0.40;0.40;;;17.30;99.90;;;;;;5029894;28;20631;-81
2022/10/15 11:43:24;;;;;;;0.40;0.40;;;17.30;99.90;;;;;;5030335;28;20647;-81
2022/10/15 11:46:03;;;;;;;0.40;0.40;;;17.30;99.90;;;;;;5029839;28;20629;-81
2022/10/15 11:48:44;;;;;;;0.30;0.30;;;17.40;99.90;;;;;;5028680;28;20631;-83
2022/10/15 11:51:24;;;;;;;2.53;1.10;;;17.40;99.90;;;;;;5030024;28;20745;-81
2022/10/15 11:54:03;;;;;;;0.60;0.40;;;17.60;99.90;;;;;;5030037;28;20623;-82
2022/10/15 11:56:36;;;;;;;0.83;0.83;;;17.60;99.90;;;;;;5029690;28;20632;-81
2022/10/15 11:59:14;;;;;;;1.13;0.57;;;17.60;99.90;;;;;;5020164;28;20622;-81
2022/10/15 12:01:46;;;;;;;0.40;0.40;;;17.60;99.90;;;;;;5010300;28;20730;-82
2022/10/15 12:04:17;;;;;;;1.37;0.43;;;17.60;99.90;;;;;;5012429;28;20620;-82
2022/10/15 12:06:49;;;;;;;0.80;0.50;;;17.60;99.90;;;;;;5028953;28;20627;-82
2022/10/15 12:09:24;;;;;;;0.37;0.20;;;17.50;99.90;;;;;;5029709;28;20665;-82
2022/10/15 12:11:58;;;;;;;0.30;0.30;;;17.60;99.90;;;;;;5029747;28;20726;-81
2022/10/15 12:14:30;;;;;;;0.40;0.40;;;17.60;99.90;;;;;;5028597;28;20622;-82
2022/10/15 12:17:05;;;;;;;0.57;0.40;;;17.50;99.90;;;;;;5016221;28;20636;-81
2022/10/15 12:19:39;;;;;;;1.47;0.43;;;17.60;99.90;;;;;;5008349;28;20629;-81
2022/10/15 12:22:10;;;;;;;0.50;0.30;;;17.50;99.90;;;;;;5009364;28;20696;-81
2022/10/15 12:24:52;;;;;;;0.93;0.50;;;17.60;99.90;;;;;;5009973;28;20624;-82
2022/10/15 12:27:28;;;;;;;0.60;0.50;;;17.50;99.90;;;;;;5008731;28;20655;-80
2022/10/15 12:30:12;;;;;;;1.47;0.60;;;17.50;99.90;;;;;;5009354;28;21274;-81
2022/10/15 12:32:41;;;;;;;0.80;0.53;;;17.40;99.90;;;;;;5001029;28;20638;-82
2022/10/15 12:35:24;;;;;;;0.40;0.40;;;17.10;99.90;;;;;;5162614;27;20304;-81
2022/10/15 12:37:51;;;;;;;0.40;0.30;;;17.20;99.90;;;;;;5131946;27;20623;-81
2022/10/15 12:40:28;;;;;;;0.50;0.50;;;17.20;99.90;;;;;;5125635;27;20751;-82
2022/10/15 12:42:57;;;;;;;0.40;0.40;;;17.10;99.90;;;;;;5126119;27;20625;-81
2022/10/15 12:45:28;;;;;;;0.80;0.40;;;17.20;99.90;;;;;;5125961;27;20621;-81
2022/10/15 12:48:12;;;;;;;1.80;0.40;;;17.10;99.90;;;;;;5125193;28;20607;-81
2022/10/15 12:50:40;;;;;;;0.40;0.40;;;17.10;99.90;;;;;;5125817;27;20614;-79
2022/10/15 12:53:31;;;;;;;0.80;0.50;;;17.10;99.90;;;;;;5124985;27;20611;-81
2022/10/15 12:56:20;;;;;;;0.30;0.30;;;17.00;99.90;;;;;;5126261;27;20625;-81
2022/10/15 12:58:48;;;;;;;0.50;0.40;;;17.10;99.90;;;;;;5125002;27;20639;-80
2022/10/15 13:01:29;;;;;;;0.37;0.37;;;17.00;99.90;;;;;;5125291;27;20622;-81
2022/10/15 13:03:58;;;;;;;0.30;0.20;;;17.00;99.90;;;;;;5125888;27;20703;-79
2022/10/15 13:06:33;;;;;;;0.50;0.40;;;17.00;99.90;;;;;;5125338;28;20683;-81